createdAt,value
2022-09-26T00:01:11.767Z,209.40
2022-09-26T00:03:38.843Z,83.65
2022-09-26T00:06:08.001Z,68.22
2022-09-26T00:08:36.528Z,63.05
2022-09-26T00:11:07.931Z,64.72
2022-09-26T00:13:37.112Z,67.13
2022-09-26T00:16:04.167Z,80.53
2022-09-26T00:18:30.976Z,82.25
2022-09-26T00:21:24.817Z,89.70
2022-09-26T00:23:51.936Z,123.40
2022-09-26T00:26:21.253Z,191.43
2022-09-26T00:28:48.967Z,102.97
2022-09-26T00:31:21.800Z,118.80
2022-09-26T00:33:48.754Z,127.63
2022-09-26T00:36:15.453Z,112.68
2022-09-26T00:38:42.143Z,90.78
2022-09-26T00:41:08.951Z,118.53
2022-09-26T00:43:47.650Z,130.38
2022-09-26T00:46:37.676Z,122.40
2022-09-26T00:49:22.687Z,97.22
2022-09-26T00:52:00.171Z,124.75
2022-09-26T00:54:29.722Z,102.93
2022-09-26T00:57:04.101Z,101.68
2022-09-26T00:59:54.132Z,106.28
2022-09-26T01:04:42.426Z,101.00
2022-09-26T01:07:17.030Z,114.50
2022-09-26T01:09:44.622Z,121.15
2022-09-26T01:12:12.149Z,101.70
2022-09-26T01:14:41.533Z,98.43
2022-09-26T01:17:10.028Z,98.82
2022-09-26T01:20:08.030Z,109.47
2022-09-26T01:22:56.512Z,119.47
2022-09-26T01:26:00.131Z,108.75
2022-09-26T01:28:42.077Z,118.40
2022-09-26T01:31:30.468Z,100.53
2022-09-26T01:33:56.978Z,131.82
2022-09-26T01:36:39.286Z,85.28
2022-09-26T01:39:29.068Z,107.03
2022-09-26T01:42:04.961Z,96.75
2022-09-26T01:44:47.272Z,91.50
2022-09-26T01:47:18.136Z,93.63
2022-09-26T01:49:57.548Z,85.50
2022-09-26T01:52:46.072Z,89.13
2022-09-26T01:55:19.161Z,95.43
2022-09-26T01:58:16.193Z,89.47
2022-09-26T02:00:46.936Z,87.65
2022-09-26T02:03:18.056Z,98.95
2022-09-26T02:05:59.799Z,121.05
2022-09-26T02:08:43.954Z,126.93
2022-09-26T02:11:18.478Z,110.38
2022-09-26T02:14:03.843Z,108.57
2022-09-26T02:16:35.583Z,105.47
2022-09-26T02:19:50.612Z,102.97
2022-09-26T02:22:17.854Z,110.18
2022-09-26T02:24:45.774Z,113.13
2022-09-26T02:27:12.428Z,94.63
2022-09-26T02:29:40.464Z,83.90
2022-09-26T02:32:17.163Z,89.15
2022-09-26T02:34:47.197Z,83.88
2022-09-26T02:37:15.930Z,87.53
2022-09-26T02:39:45.176Z,78.55
2022-09-26T02:42:23.741Z,81.60
2022-09-26T02:45:16.921Z,90.15
2022-09-26T02:48:16.108Z,93.88
2022-09-26T02:50:48.957Z,83.60
2022-09-26T02:53:49.491Z,81.65
2022-09-26T02:56:52.668Z,83.75
2022-09-26T02:59:45.988Z,81.50
2022-09-26T03:02:15.969Z,89.20
2022-09-26T03:04:55.077Z,82.05
2022-09-26T03:07:29.959Z,76.80
2022-09-26T03:10:00.553Z,80.97
2022-09-26T03:12:29.882Z,77.90
2022-09-26T03:14:58.900Z,69.55
2022-09-26T03:17:28.096Z,77.78
2022-09-26T03:20:01.600Z,76.72
2022-09-26T03:22:30.133Z,78.70
2022-09-26T03:24:59.345Z,74.88
2022-09-26T03:27:27.198Z,74.45
2022-09-26T03:29:54.473Z,79.32
2022-09-26T03:32:24.019Z,84.05
2022-09-26T03:37:08.094Z,97.38
2022-09-26T03:39:34.777Z,87.85
2022-09-26T03:42:08.179Z,96.57
2022-09-26T03:44:34.876Z,96.15
2022-09-26T03:47:15.467Z,98.40
2022-09-26T03:49:44.614Z,98.63
2022-09-26T03:52:13.356Z,104.05
2022-09-26T03:54:41.757Z,98.28
2022-09-26T03:57:10.469Z,102.43
2022-09-26T03:59:42.516Z,106.30
2022-09-26T04:02:12.342Z,95.68
2022-09-26T04:04:43.284Z,93.38
2022-09-26T04:07:11.005Z,92.65
2022-09-26T04:09:38.310Z,94.47
2022-09-26T04:12:05.147Z,90.43
2022-09-26T04:14:34.174Z,85.32
2022-09-26T04:17:00.843Z,100.45
2022-09-26T04:19:38.077Z,90.93
2022-09-26T04:22:08.112Z,96.03
2022-09-26T04:24:35.016Z,91.53
2022-09-26T04:27:01.760Z,91.13
2022-09-26T04:29:30.141Z,91.15
2022-09-26T04:32:09.088Z,94.28
2022-09-26T04:34:50.501Z,96.17
2022-09-26T04:37:17.117Z,95.50
2022-09-26T04:39:43.735Z,98.57
2022-09-26T04:42:10.565Z,90.60
2022-09-26T04:44:37.119Z,96.90
2022-09-26T04:47:04.026Z,101.18
2022-09-26T04:49:53.484Z,93.03
2022-09-26T04:52:20.266Z,98.45
2022-09-26T04:54:47.979Z,103.28
2022-09-26T04:57:19.339Z,96.13
2022-09-26T04:59:46.481Z,97.63
2022-09-26T05:02:13.240Z,104.63
2022-09-26T05:04:43.526Z,103.15
2022-09-26T05:07:10.191Z,99.20
2022-09-26T05:09:37.840Z,95.90
2022-09-26T05:12:13.348Z,100.00
2022-09-26T05:14:44.625Z,102.10
2022-09-26T05:19:38.833Z,101.88
2022-09-26T05:22:25.673Z,95.95
2022-09-26T05:25:12.457Z,94.88
2022-09-26T05:27:39.906Z,93.78
2022-09-26T05:30:07.213Z,92.03
2022-09-26T05:32:34.228Z,94.78
2022-09-26T05:35:00.837Z,99.53
2022-09-26T05:37:30.231Z,96.18
2022-09-26T05:40:15.370Z,100.95
2022-09-26T05:42:47.907Z,100.68
2022-09-26T05:45:15.671Z,104.15
2022-09-26T05:47:43.001Z,107.85
2022-09-26T05:50:10.238Z,104.22
2022-09-26T05:52:39.097Z,95.22
2022-09-26T05:55:07.384Z,107.57
2022-09-26T05:58:07.605Z,92.05
2022-09-26T06:00:52.824Z,91.75
2022-09-26T06:03:19.949Z,93.38
2022-09-26T06:06:07.948Z,107.05
2022-09-26T06:08:36.829Z,99.90
2022-09-26T06:11:29.477Z,100.80
2022-09-26T06:13:59.244Z,105.65
2022-09-26T06:16:26.758Z,95.38
2022-09-26T06:18:55.482Z,91.65
2022-09-26T06:21:23.683Z,92.03
2022-09-26T06:23:58.500Z,97.88
2022-09-26T06:26:29.041Z,91.25
2022-09-26T06:28:58.021Z,88.63
2022-09-26T06:31:26.624Z,88.68
2022-09-26T06:34:13.045Z,87.93
2022-09-26T06:36:51.596Z,92.63
2022-09-26T06:41:40.954Z,85.65
2022-09-26T06:44:42.956Z,88.72
2022-09-26T06:47:24.965Z,88.10
2022-09-26T06:50:11.608Z,92.93
2022-09-26T06:52:44.043Z,93.85
2022-09-26T06:55:11.947Z,92.28
2022-09-26T06:57:43.062Z,92.40
2022-09-26T07:00:15.963Z,91.95
2022-09-26T07:03:02.652Z,88.70
2022-09-26T07:05:48.110Z,84.80
2022-09-26T07:08:15.101Z,91.82
2022-09-26T07:10:41.717Z,95.13
2022-09-26T07:13:13.716Z,98.07
2022-09-26T07:15:45.008Z,90.95
2022-09-26T07:18:30.401Z,87.38
2022-09-26T07:21:05.208Z,94.80
2022-09-26T07:23:58.552Z,80.15
2022-09-26T07:26:26.150Z,86.33
2022-09-26T07:28:54.860Z,99.78
2022-09-26T07:31:24.185Z,99.93
2022-09-26T07:34:14.651Z,84.93
2022-09-26T07:36:47.516Z,88.68
2022-09-26T07:39:14.406Z,92.88
2022-09-26T07:41:45.825Z,90.45
2022-09-26T07:47:19.063Z,87.80
2022-09-26T07:50:04.906Z,90.13
2022-09-26T07:52:37.319Z,102.88
2022-09-26T07:55:27.813Z,100.60
2022-09-26T07:58:09.624Z,98.93
2022-09-26T08:00:48.966Z,89.53
2022-09-26T08:03:48.051Z,95.40
2022-09-26T08:06:26.047Z,89.10
2022-09-26T08:08:54.245Z,90.40
2022-09-26T08:11:40.522Z,86.03
2022-09-26T08:14:14.374Z,97.15
2022-09-26T08:16:55.926Z,106.07
2022-09-26T08:19:24.475Z,104.30
2022-09-26T08:21:51.356Z,100.53
2022-09-26T08:24:19.345Z,96.05
2022-09-26T08:27:14.117Z,92.72
2022-09-26T08:29:42.788Z,95.00
2022-09-26T08:32:11.336Z,92.80
2022-09-26T08:34:40.885Z,88.65
2022-09-26T08:37:34.039Z,87.32
2022-09-26T08:40:28.713Z,85.00
2022-09-26T08:43:13.925Z,86.05
2022-09-26T08:46:33.354Z,216.25
2022-09-26T08:49:29.186Z,202.18
2022-09-26T08:51:59.736Z,108.95
2022-09-26T08:54:44.986Z,90.82
2022-09-26T08:57:49.561Z,91.90
2022-09-26T09:00:25.187Z,92.78
2022-09-26T09:03:02.101Z,115.55
2022-09-26T09:05:39.158Z,109.38
2022-09-26T09:08:12.871Z,99.65
2022-09-26T09:11:12.137Z,97.93
2022-09-26T09:14:01.520Z,104.43
2022-09-26T09:16:57.133Z,105.10
2022-09-26T09:20:15.057Z,97.75
2022-09-26T09:23:03.260Z,103.40
2022-09-26T09:25:49.816Z,97.20
2022-09-26T09:28:35.186Z,98.28
2022-09-26T09:31:09.601Z,89.93
2022-09-26T09:33:55.572Z,94.60
2022-09-26T09:36:31.809Z,103.93
2022-09-26T09:39:37.748Z,93.22
2022-09-26T09:42:28.479Z,99.57
2022-09-26T09:45:09.279Z,91.47
2022-09-26T09:47:39.384Z,88.93
2022-09-26T09:50:20.225Z,90.97
2022-09-26T09:53:06.593Z,97.07
2022-09-26T09:55:54.257Z,86.07
2022-09-26T09:58:42.265Z,88.03
2022-09-26T10:01:26.876Z,86.40
2022-09-26T10:04:20.656Z,81.13
2022-09-26T10:06:48.414Z,86.93
2022-09-26T10:12:28.786Z,61.45
2022-09-26T10:15:36.313Z,69.63
2022-09-26T10:18:30.563Z,56.72
2022-09-26T10:21:17.869Z,62.85
2022-09-26T10:23:50.437Z,56.47
2022-09-26T10:26:36.869Z,62.70
2022-09-26T10:29:23.340Z,67.20
2022-09-26T10:31:56.252Z,64.30
2022-09-26T10:34:31.266Z,49.65
2022-09-26T10:37:20.463Z,43.60
2022-09-26T10:40:14.814Z,41.00
2022-09-26T10:45:29.189Z,36.53
2022-09-26T10:48:24.784Z,43.10
2022-09-26T10:51:37.502Z,44.03
2022-09-26T10:54:17.049Z,45.22
2022-09-26T10:56:51.197Z,44.72
2022-09-26T10:59:24.413Z,54.10
2022-09-26T11:01:55.902Z,48.13
2022-09-26T11:04:45.005Z,43.40
2022-09-26T11:07:52.333Z,41.60
2022-09-26T11:10:41.496Z,44.00
2022-09-26T11:13:23.889Z,40.33
2022-09-26T11:16:22.649Z,46.97
2022-09-26T11:19:08.981Z,32.17
2022-09-26T11:21:51.405Z,34.25
2022-09-26T11:24:37.264Z,29.40
2022-09-26T11:27:33.444Z,29.15
2022-09-26T11:30:14.518Z,26.77
2022-09-26T11:32:55.276Z,21.90
2022-09-26T11:35:53.194Z,24.88
2022-09-26T11:38:46.388Z,21.30
2022-09-26T11:41:38.291Z,15.10
2022-09-26T11:44:24.119Z,23.88
2022-09-26T11:47:47.647Z,14.50
2022-09-26T11:50:40.093Z,22.48
2022-09-26T11:53:19.691Z,16.52
2022-09-26T11:56:08.135Z,17.35
2022-09-26T11:58:48.258Z,15.13
2022-09-26T12:01:38.947Z,15.40
2022-09-26T12:04:12.266Z,15.05
2022-09-26T12:06:53.983Z,15.73
2022-09-26T12:09:41.922Z,17.50
2022-09-26T12:12:34.088Z,13.35
2022-09-26T12:15:30.314Z,13.77
2022-09-26T12:18:13.405Z,14.10
2022-09-26T12:21:22.406Z,12.50
2022-09-26T12:23:59.672Z,16.40
2022-09-26T12:26:49.783Z,14.50
2022-09-26T12:29:23.474Z,13.80
2022-09-26T12:32:14.592Z,15.02
2022-09-26T12:35:07.080Z,18.55
2022-09-26T12:38:15.798Z,17.88
2022-09-26T12:41:02.936Z,15.68
2022-09-26T12:43:56.673Z,14.35
2022-09-26T12:46:43.119Z,20.35
2022-09-26T12:49:22.893Z,17.98
2022-09-26T12:51:55.689Z,14.80
2022-09-26T12:54:57.497Z,16.20
2022-09-26T12:57:57.141Z,16.58
2022-09-26T13:00:25.059Z,15.18
2022-09-26T13:03:14.220Z,13.70
2022-09-26T13:05:50.432Z,16.58
2022-09-26T13:08:36.760Z,17.42
2022-09-26T13:11:09.287Z,17.02
2022-09-26T13:14:09.613Z,18.65
2022-09-26T13:17:05.903Z,19.08
2022-09-26T13:19:41.115Z,17.42
2022-09-26T13:22:13.947Z,18.77
2022-09-26T13:25:17.762Z,20.38
2022-09-26T13:27:48.529Z,21.92
2022-09-26T13:30:28.023Z,21.13
2022-09-26T13:33:07.044Z,20.73
2022-09-26T13:35:36.693Z,22.15
2022-09-26T13:38:28.461Z,23.73
2022-09-26T13:41:11.075Z,22.35
2022-09-26T13:44:28.821Z,20.48
2022-09-26T13:47:19.695Z,20.50
2022-09-26T13:50:13.493Z,23.02
2022-09-26T13:53:00.847Z,21.20
2022-09-26T13:55:29.140Z,21.10
2022-09-26T13:58:06.730Z,16.88
2022-09-26T14:00:42.596Z,17.85
2022-09-26T14:03:19.108Z,15.65
2022-09-26T14:05:51.069Z,18.48
2022-09-26T14:08:55.457Z,19.88
2022-09-26T14:13:43.671Z,17.58
2022-09-26T14:16:28.734Z,21.90
2022-09-26T14:19:04.740Z,20.58
2022-09-26T14:21:35.650Z,15.75
2022-09-26T14:24:21.681Z,17.23
2022-09-26T14:27:04.170Z,20.73
2022-09-26T14:29:44.642Z,13.70
2022-09-26T14:32:27.973Z,16.52
2022-09-26T14:34:59.163Z,19.48
2022-09-26T14:37:40.272Z,21.23
2022-09-26T14:40:09.607Z,23.53
2022-09-26T14:43:16.665Z,16.08
2022-09-26T14:45:50.000Z,15.75
2022-09-26T14:48:20.084Z,17.67
2022-09-26T14:50:50.052Z,15.23
2022-09-26T14:53:28.937Z,17.30
2022-09-26T14:56:16.115Z,18.58
2022-09-26T14:58:42.654Z,14.82
2022-09-26T15:01:20.041Z,17.85
2022-09-26T15:04:03.708Z,18.50
2022-09-26T15:06:36.120Z,20.27
2022-09-26T15:09:32.189Z,21.95
2022-09-26T15:12:03.921Z,20.83
2022-09-26T15:14:45.161Z,21.58
2022-09-26T15:17:18.540Z,21.27
2022-09-26T15:19:52.010Z,20.10
2022-09-26T15:22:21.017Z,19.13
2022-09-26T15:24:54.189Z,19.27
2022-09-26T15:27:28.025Z,22.52
2022-09-26T15:30:03.748Z,23.85
2022-09-26T15:32:33.395Z,20.80
2022-09-26T15:35:02.667Z,20.83
2022-09-26T15:37:33.717Z,20.70
2022-09-26T15:40:25.325Z,21.38
2022-09-26T15:43:12.755Z,18.80
2022-09-26T15:45:46.474Z,17.35
2022-09-26T15:48:18.893Z,21.13
2022-09-26T15:51:19.916Z,16.65
2022-09-26T15:53:50.624Z,18.08
2022-09-26T15:56:35.414Z,23.63
2022-09-26T15:59:12.469Z,18.42
2022-09-26T16:01:42.588Z,17.83
2022-09-26T16:04:27.284Z,18.42
2022-09-26T16:07:04.706Z,21.23
2022-09-26T16:09:39.812Z,18.67
2022-09-26T16:12:15.645Z,27.20
2022-09-26T16:14:51.557Z,17.10
2022-09-26T16:17:26.674Z,25.83
2022-09-26T16:20:05.953Z,30.85
2022-09-26T16:22:45.383Z,21.42
2022-09-26T16:25:22.907Z,18.38
2022-09-26T16:28:00.055Z,21.90
2022-09-26T16:30:30.166Z,18.08
2022-09-26T16:33:33.693Z,33.75
2022-09-26T16:36:15.084Z,45.53
2022-09-26T16:38:41.763Z,45.13
2022-09-26T16:42:03.783Z,37.10
2022-09-26T16:44:36.276Z,47.58
2022-09-26T16:47:06.661Z,41.35
2022-09-26T16:49:46.746Z,38.72
2022-09-26T16:52:26.980Z,346.38
2022-09-26T16:54:59.673Z,238.63
2022-09-26T16:57:30.429Z,186.90
2022-09-26T17:00:41.760Z,148.82
2022-09-26T17:03:24.169Z,253.55
2022-09-26T17:05:52.566Z,483.65
2022-09-26T17:08:19.544Z,261.90
2022-09-26T17:10:46.248Z,275.45
2022-09-26T17:13:22.705Z,327.08
2022-09-26T17:15:52.998Z,251.82
2022-09-26T17:18:23.066Z,132.80
2022-09-26T17:20:50.169Z,75.65
2022-09-26T17:23:38.889Z,72.00
2022-09-26T17:26:06.782Z,93.82
2022-09-26T17:28:43.197Z,60.08
2022-09-26T17:31:19.501Z,66.07
2022-09-26T17:33:49.924Z,203.68
2022-09-26T17:36:24.953Z,95.25
2022-09-26T17:38:52.121Z,61.15
2022-09-26T17:41:18.893Z,56.83
2022-09-26T17:43:45.565Z,49.25
2022-09-26T17:46:15.841Z,45.30
2022-09-26T17:48:44.437Z,43.15
2022-09-26T17:51:14.662Z,83.20
2022-09-26T17:53:50.410Z,83.47
2022-09-26T17:56:21.089Z,83.40
2022-09-26T17:58:49.410Z,54.15
2022-09-26T18:01:32.532Z,44.95
2022-09-26T18:04:02.423Z,37.20
2022-09-26T18:06:33.396Z,38.05
2022-09-26T18:09:07.889Z,35.60
2022-09-26T18:11:36.247Z,31.67
2022-09-26T18:14:08.357Z,29.20
2022-09-26T18:16:35.211Z,24.88
2022-09-26T18:19:06.252Z,30.15
2022-09-26T18:21:33.932Z,28.00
2022-09-26T18:24:02.674Z,28.75
2022-09-26T18:26:33.368Z,33.40
2022-09-26T18:29:08.251Z,32.83
2022-09-26T18:31:41.518Z,289.40
2022-09-26T18:34:20.600Z,1184.47
2022-09-26T18:36:52.795Z,1385.75
2022-09-26T18:39:19.509Z,1138.43
2022-09-26T18:41:48.509Z,522.30
2022-09-26T18:44:19.867Z,434.17
2022-09-26T18:46:48.137Z,191.38
2022-09-26T18:51:45.740Z,183.75
2022-09-26T18:54:14.881Z,437.40
2022-09-26T18:57:00.488Z,863.13
2022-09-26T18:59:31.005Z,503.52
2022-09-26T19:02:01.269Z,195.88
2022-09-26T19:04:30.692Z,953.13
2022-09-26T19:07:04.805Z,757.08
2022-09-26T19:09:33.857Z,418.30
2022-09-26T19:12:01.435Z,75.28
2022-09-26T19:14:30.205Z,663.72
2022-09-26T19:16:58.020Z,612.50
2022-09-26T19:19:25.783Z,555.83
2022-09-26T19:21:56.920Z,94.32
2022-09-26T19:24:23.634Z,55.93
2022-09-26T19:27:04.749Z,87.35
2022-09-26T19:29:43.592Z,55.63
2022-09-26T19:32:23.495Z,40.72
2022-09-26T19:34:56.664Z,48.28
2022-09-26T19:37:23.431Z,39.03
2022-09-26T19:39:52.708Z,43.78
2022-09-26T19:42:20.677Z,58.42
2022-09-26T19:44:47.601Z,75.80
2022-09-26T19:47:16.967Z,61.60
2022-09-26T19:49:47.568Z,64.53
2022-09-26T19:52:23.255Z,51.20
2022-09-26T19:54:51.846Z,54.00
2022-09-26T19:57:20.601Z,57.38
2022-09-26T19:59:48.450Z,99.00
2022-09-26T20:02:18.147Z,154.10
2022-09-26T20:04:44.950Z,55.80
2022-09-26T20:07:14.222Z,60.80
2022-09-26T20:09:41.762Z,55.72
2022-09-26T20:12:09.262Z,59.42
2022-09-26T20:14:36.062Z,63.70
2022-09-26T20:17:13.022Z,97.38
2022-09-26T20:21:53.098Z,49.45
2022-09-26T20:24:20.001Z,47.33
2022-09-26T20:26:48.124Z,43.00
2022-09-26T20:29:16.214Z,44.53
2022-09-26T20:31:43.620Z,48.97
2022-09-26T20:34:14.198Z,45.50
2022-09-26T20:36:44.511Z,57.83
2022-09-26T20:39:16.673Z,55.72
2022-09-26T20:41:44.277Z,52.00
2022-09-26T20:44:17.833Z,69.65
2022-09-26T20:46:50.702Z,55.22
2022-09-26T20:49:25.467Z,36.85
2022-09-26T20:51:53.506Z,40.20
2022-09-26T20:54:32.831Z,37.58
2022-09-26T20:57:01.477Z,38.88
2022-09-26T20:59:29.147Z,38.13
2022-09-26T21:01:57.742Z,42.72
2022-09-26T21:04:32.529Z,44.65
2022-09-26T21:06:59.509Z,50.50
2022-09-26T21:09:26.123Z,44.75
2022-09-26T21:11:52.884Z,59.67
2022-09-26T21:14:19.405Z,46.78
2022-09-26T21:16:50.258Z,56.28
2022-09-26T21:19:22.584Z,56.10
2022-09-26T21:21:56.572Z,87.35
2022-09-26T21:24:50.328Z,64.07
2022-09-26T21:27:17.022Z,177.70
2022-09-26T21:29:43.665Z,163.27
2022-09-26T21:32:17.393Z,92.72
2022-09-26T21:34:54.339Z,82.03
2022-09-26T21:37:21.075Z,92.22
2022-09-26T21:39:47.978Z,116.35
2022-09-26T21:42:14.784Z,87.18
2022-09-26T21:44:46.047Z,78.95
2022-09-26T21:47:12.800Z,78.20
2022-09-26T21:49:39.476Z,124.20
2022-09-26T21:52:10.718Z,147.70
2022-09-26T21:54:42.604Z,188.40
2022-09-26T21:57:30.371Z,156.73
2022-09-26T21:59:58.445Z,134.50
2022-09-26T22:02:25.772Z,132.52
2022-09-26T22:04:52.831Z,114.78
2022-09-26T22:07:19.432Z,127.13
2022-09-26T22:09:46.240Z,129.30
2022-09-26T22:12:12.884Z,119.82
2022-09-26T22:14:39.493Z,136.55
2022-09-26T22:17:06.146Z,147.25
2022-09-26T22:19:33.641Z,153.20
2022-09-26T22:22:01.734Z,174.32
2022-09-26T22:24:28.452Z,168.80
2022-09-26T22:26:55.012Z,177.85
2022-09-26T22:29:21.653Z,142.70
2022-09-26T22:31:48.257Z,165.80
2022-09-26T22:34:15.133Z,124.07
2022-09-26T22:36:41.724Z,141.57
2022-09-26T22:39:08.385Z,133.20
2022-09-26T22:41:34.990Z,105.10
2022-09-26T22:44:02.013Z,89.50
2022-09-26T22:46:29.048Z,71.07
2022-09-26T22:48:56.479Z,78.05
2022-09-26T22:51:23.137Z,99.53
2022-09-26T22:53:50.028Z,72.20
2022-09-26T22:56:18.594Z,61.20
2022-09-26T22:58:54.696Z,60.03
2022-09-26T23:01:28.463Z,55.15
2022-09-26T23:03:56.847Z,59.45
2022-09-26T23:06:24.149Z,47.72
2022-09-26T23:08:51.582Z,58.58
2022-09-26T23:11:18.794Z,84.22
2022-09-26T23:13:46.603Z,55.90
2022-09-26T23:16:17.112Z,73.57
2022-09-26T23:18:44.759Z,81.80
2022-09-26T23:21:13.588Z,126.85
2022-09-26T23:23:43.129Z,172.32
2022-09-26T23:26:31.717Z,258.67
2022-09-26T23:28:59.454Z,128.57
2022-09-26T23:31:27.562Z,183.13
2022-09-26T23:33:55.065Z,197.25
2022-09-26T23:36:22.119Z,294.48
2022-09-26T23:38:49.485Z,190.85
2022-09-26T23:41:16.100Z,217.30
2022-09-26T23:43:46.401Z,187.23
2022-09-26T23:46:13.169Z,180.43
2022-09-26T23:48:39.958Z,127.78
2022-09-26T23:51:06.778Z,240.05
2022-09-26T23:53:33.448Z,192.00
2022-09-26T23:56:13.716Z,204.93
2022-09-26T23:58:40.867Z,206.15
